Time;durP1;ratioP1;P1;durP2;ratioP2;P2;SDS_P1;SDS_P2;PMS_P1;PMS_P2;Temp;Humidity;BMP_temperature;BMP_pressure;BME280_temperature;BME280_humidity;BME280_pressure;Samples;Min_cycle;Max_cycle;Signal;HPM_P1;HPM_P2
2022/02/23 00:00:00;;;;;;;23.60;9.40;;;;;;;5.11;55.96;98940.98;231380;1228;138935;-62
2022/02/23 00:05:04;;;;;;;24.60;9.10;;;;;;;5.05;55.93;98936.84;231294;1228;138740;-60
2022/02/23 00:10:08;;;;;;;24.20;8.50;;;;;;;5.00;56.15;98927.73;231275;1229;139955;-61
2022/02/23 00:15:11;;;;;;;24.50;9.50;;;;;;;5.01;56.26;98926.80;231243;1229;138545;-62
2022/02/23 00:20:17;;;;;;;;;;;;;;;5.02;56.22;98912.69;231298;1229;138891;-66
2022/02/23 00:25:21;;;;;;;19.90;8.60;;;;;;;5.02;56.07;98905.14;231467;1228;125252;-65
2022/02/23 00:30:24;;;;;;;24.20;9.50;;;;;;;4.97;56.09;98900.56;231205;1228;139724;-64
2022/02/23 00:35:28;;;;;;;22.30;8.60;;;;;;;4.97;56.14;98894.44;231266;1229;139623;-60
2022/02/23 00:40:31;;;;;;;19.70;8.80;;;;;;;5.00;56.10;98887.44;231341;1229;139317;-61
2022/02/23 00:45:34;;;;;;;20.90;8.60;;;;;;;5.00;56.03;98875.16;231260;1229;140203;-63
2022/02/23 00:50:37;;;;;;;23.20;9.30;;;;;;;4.99;55.96;98867.80;231268;1228;138933;-61
2022/02/23 00:55:40;;;;;;;23.70;9.20;;;;;;;5.02;55.94;98850.64;231256;1229;140072;-61
2022/02/23 01:00:43;;;;;;;20.50;8.40;;;;;;;5.03;55.83;98844.97;231367;1229;138319;-60
2022/02/23 01:05:46;;;;;;;21.70;8.30;;;;;;;5.01;55.79;98838.55;231339;1229;138677;-63
2022/02/23 01:10:49;;;;;;;28.50;8.70;;;;;;;5.00;55.78;98844.55;231245;1228;138366;-65
2022/02/23 01:15:54;;;;;;;17.50;8.00;;;;;;;5.00;55.77;98838.06;231287;1228;138811;-66
2022/02/23 01:20:57;;;;;;;23.90;8.90;;;;;;;5.00;55.61;98842.45;231237;1229;139712;-59
2022/02/23 01:26:01;;;;;;;21.60;7.20;;;;;;;5.02;55.77;98837.81;231275;1228;139056;-62
2022/02/23 01:31:04;;;;;;;16.20;7.20;;;;;;;5.04;55.65;98835.23;231362;1230;139454;-60
2022/02/23 01:36:07;;;;;;;18.90;7.80;;;;;;;5.05;55.55;98825.70;231277;1229;138727;-60
2022/02/23 01:41:10;;;;;;;21.00;7.50;;;;;;;5.05;55.50;98811.10;231265;1229;140128;-62
2022/02/23 01:46:14;;;;;;;23.20;7.90;;;;;;;5.03;55.34;98798.73;231231;1228;139412;-58
2022/02/23 01:51:17;;;;;;;20.80;6.70;;;;;;;5.03;55.36;98788.88;231076;1229;139149;-61
2022/02/23 01:56:20;;;;;;;22.00;7.30;;;;;;;5.01;55.28;98780.72;231218;1228;139088;-60
2022/02/23 02:01:23;;;;;;;17.10;6.40;;;;;;;5.00;55.28;98774.25;231316;1229;139487;-63
2022/02/23 02:06:26;;;;;;;21.10;6.60;;;;;;;5.00;55.35;98771.98;231311;1229;139278;-59
2022/02/23 02:11:30;;;;;;;15.90;5.90;;;;;;;4.96;55.19;98772.14;231342;1228;139097;-62
2022/02/23 02:16:33;;;;;;;17.50;5.60;;;;;;;4.98;55.35;98776.98;231264;1229;138918;-63
2022/02/23 02:22:03;;;;;;;14.50;5.50;;;;;;;5.01;55.34;98773.86;231205;1228;138949;-62
2022/02/23 02:27:12;;;;;;;14.40;4.80;;;;;;;5.04;55.07;98765.11;231343;1228;139894;-62
2022/02/23 02:32:17;;;;;;;13.20;5.40;;;;;;;5.07;55.05;98753.19;231247;1228;139028;-61
2022/02/23 02:37:20;;;;;;;12.10;4.70;;;;;;;5.09;54.96;98746.92;231315;1229;139415;-60
2022/02/23 02:42:23;;;;;;;15.60;4.50;;;;;;;5.10;54.80;98728.74;231216;1229;139131;-62
2022/02/23 02:47:26;;;;;;;14.90;4.30;;;;;;;5.10;54.70;98729.66;231316;1228;138988;-62
2022/02/23 02:52:29;;;;;;;12.80;4.20;;;;;;;5.08;54.80;98734.65;231251;1229;140625;-61
2022/02/23 02:57:32;;;;;;;11.30;4.00;;;;;;;5.10;54.57;98734.79;231291;1229;139059;-61
2022/02/23 03:02:36;;;;;;;12.70;4.60;;;;;;;5.12;54.53;98728.69;231272;1229;138746;-60
2022/02/23 03:07:39;;;;;;;20.40;4.60;;;;;;;5.11;54.51;98724.52;231371;1229;138830;-61
2022/02/23 03:12:42;;;;;;;13.90;4.30;;;;;;;5.08;54.33;98731.85;231309;1229;138925;-65
2022/02/23 03:17:45;;;;;;;13.70;4.50;;;;;;;5.08;54.46;98736.81;231318;1229;139355;-61
2022/02/23 03:22:48;;;;;;;12.30;5.10;;;;;;;5.10;54.65;98734.57;231278;1228;139346;-60
2022/02/23 03:27:51;;;;;;;14.60;5.60;;;;;;;5.10;54.42;98728.08;231315;1228;138964;-61
2022/02/23 03:32:54;;;;;;;16.80;4.70;;;;;;;5.02;54.32;98731.95;231271;1229;139942;-61
2022/02/23 03:37:58;;;;;;;15.10;5.10;;;;;;;4.90;54.30;98722.45;231295;1229;139436;-62
2022/02/23 03:43:01;;;;;;;15.90;4.80;;;;;;;4.85;54.57;98727.42;231457;1228;139525;-61
2022/02/23 03:48:05;;;;;;;15.10;5.40;;;;;;;4.86;54.70;98723.68;231324;1228;138906;-60
2022/02/23 03:53:08;;;;;;;15.30;4.80;;;;;;;4.85;54.55;98727.78;231387;1228;138809;-62
2022/02/23 03:58:11;;;;;;;16.00;5.50;;;;;;;4.83;54.74;98727.34;231325;1229;139562;-62
2022/02/23 04:03:16;;;;;;;21.90;4.60;;;;;;;4.83;54.82;98725.23;231271;1228;138859;-61
2022/02/23 04:08:19;;;;;;;15.00;4.40;;;;;;;4.89;54.83;98727.77;231269;1228;138639;-59
2022/02/23 04:13:22;;;;;;;13.40;4.40;;;;;;;4.97;54.89;98732.17;231413;1229;139603;-62
2022/02/23 04:18:25;;;;;;;15.50;4.30;;;;;;;5.02;54.85;98738.83;231306;1229;139387;-62
2022/02/23 04:23:28;;;;;;;13.80;4.20;;;;;;;5.05;54.91;98743.94;231279;1229;138740;-63
2022/02/23 04:28:31;;;;;;;11.40;4.10;;;;;;;5.04;54.90;98751.38;231286;1228;138809;-64
2022/02/23 04:33:35;;;;;;;12.10;4.40;;;;;;;5.01;55.11;98757.30;231281;1229;139271;-59
2022/02/23 04:38:38;;;;;;;13.70;4.80;;;;;;;4.97;55.30;98755.73;231318;1229;139700;-62
2022/02/23 04:43:42;;;;;;;16.40;5.10;;;;;;;4.90;55.71;98757.77;231398;1228;138765;-62
2022/02/23 04:48:45;;;;;;;14.50;5.00;;;;;;;4.85;56.20;98762.41;231253;1229;138682;-59
2022/02/23 04:53:48;;;;;;;9.20;3.80;;;;;;;4.83;56.69;98764.95;231278;1228;138403;-60
2022/02/23 04:58:52;;;;;;;14.50;4.70;;;;;;;4.82;57.20;98763.96;231282;1229;138426;-63
2022/02/23 05:03:55;;;;;;;13.20;5.00;;;;;;;4.78;57.59;98770.09;231270;1228;139033;-61
2022/02/23 05:08:58;;;;;;;11.70;4.70;;;;;;;4.73;58.06;98765.39;231237;1229;138992;-61
2022/02/23 05:14:01;;;;;;;11.60;4.10;;;;;;;4.66;58.81;98777.95;231370;1228;138647;-61
2022/02/23 05:19:04;;;;;;;11.20;4.20;;;;;;;4.68;59.23;98785.27;231473;1228;139231;-63
2022/02/23 05:24:07;;;;;;;10.90;4.70;;;;;;;4.67;59.89;98794.43;231294;1229;139362;-60
2022/02/23 05:29:10;;;;;;;12.80;4.70;;;;;;;4.65;60.56;98801.91;231327;1229;138863;-62
2022/02/23 05:34:13;;;;;;;11.50;4.40;;;;;;;4.65;61.07;98812.99;231221;1230;139345;-60
2022/02/23 05:39:17;;;;;;;11.90;4.20;;;;;;;4.66;61.78;98818.05;231249;1229;138761;-61
2022/02/23 05:44:20;;;;;;;9.30;3.40;;;;;;;4.73;62.02;98823.02;231242;1228;138878;-60
2022/02/23 05:49:23;;;;;;;8.90;4.10;;;;;;;4.79;62.53;98836.32;231379;1228;139685;-61
2022/02/23 05:54:26;;;;;;;10.60;3.70;;;;;;;4.84;62.78;98835.90;231278;1228;138871;-62
2022/02/23 05:59:30;;;;;;;77.30;54.00;;;;;;;4.91;63.17;98837.35;231273;1229;139018;-61
2022/02/23 06:04:36;;;;;;;10.90;4.90;;;;;;;5.12;63.69;98843.86;231397;1228;138970;-61
2022/02/23 06:09:39;;;;;;;10.00;3.70;;;;;;;5.23;63.44;98848.50;231249;1228;138748;-63
2022/02/23 06:14:42;;;;;;;10.20;4.00;;;;;;;5.26;63.36;98853.45;231251;1229;139278;-65
2022/02/23 06:19:46;;;;;;;49.00;31.20;;;;;;;5.32;63.76;98859.02;231352;1228;139863;-63
2022/02/23 06:24:50;;;;;;;10.90;5.40;;;;;;;5.47;63.97;98874.87;231158;1229;139942;-64
2022/02/23 06:29:55;;;;;;;9.60;4.20;;;;;;;5.54;63.90;98886.39;231225;1228;140089;-62
2022/02/23 06:34:58;;;;;;;10.90;4.60;;;;;;;5.52;63.92;98899.30;231117;1229;138252;-63
2022/02/23 06:40:03;;;;;;;109.90;68.80;;;;;;;5.51;64.12;98898.63;231330;1228;139464;-63
2022/02/23 06:45:07;;;;;;;13.70;5.70;;;;;;;5.52;64.35;98918.30;231260;1228;139273;-61
2022/02/23 06:50:10;;;;;;;12.20;5.10;;;;;;;5.55;64.49;98931.20;231272;1229;140621;-64
2022/02/23 06:55:15;;;;;;;8.40;4.80;;;;;;;5.62;64.74;98933.20;231357;1228;139826;-61
2022/02/23 07:00:18;;;;;;;11.80;4.30;;;;;;;5.66;64.87;98941.63;231284;1228;138657;-61
2022/02/23 07:05:21;;;;;;;11.50;4.80;;;;;;;5.70;64.79;98953.77;231250;1229;138849;-63
2022/02/23 07:10:26;;;;;;;11.30;5.20;;;;;;;5.70;64.76;98962.39;231234;1229;139056;-64
2022/02/23 07:15:29;;;;;;;12.80;5.70;;;;;;;5.74;65.08;98978.58;231259;1229;139060;-61
2022/02/23 07:20:34;;;;;;;11.00;4.20;;;;;;;5.70;65.03;99000.77;231274;1229;139002;-63
2022/02/23 07:25:37;;;;;;;8.30;4.30;;;;;;;5.69;65.19;99007.86;231371;1228;140540;-64
2022/02/23 07:30:40;;;;;;;7.60;4.40;;;;;;;5.67;65.14;99021.48;231318;1228;139104;-61
2022/02/23 07:35:43;;;;;;;10.90;5.10;;;;;;;5.67;65.15;99025.36;231277;1229;138705;-60
2022/02/23 07:40:46;;;;;;;8.40;4.50;;;;;;;5.74;65.36;99026.98;231271;1229;138797;-61
2022/02/23 07:46:12;;;;;;;8.10;4.00;;;;;;;5.78;65.28;99049.34;231271;1228;138518;-64
2022/02/23 07:51:16;;;;;;;4.80;2.70;;;;;;;5.72;65.19;99071.81;231272;1229;139511;-62
2022/02/23 07:56:21;;;;;;;5.20;2.40;;;;;;;5.72;65.18;99081.84;231250;1229;139106;-66
2022/02/23 08:01:37;;;;;;;9.30;2.50;;;;;;;5.67;65.05;99094.35;231381;1229;138607;-63
2022/02/23 08:06:44;;;;;;;64.30;36.50;;;;;;;5.60;65.15;99095.67;231210;1228;140500;-60
2022/02/23 08:11:48;;;;;;;8.40;2.30;;;;;;;5.61;65.04;99107.98;231162;1229;139040;-63
2022/02/23 08:22:14;;;;;;;8.70;2.40;;;;;;;5.45;64.69;99136.95;231266;1229;139475;-62
2022/02/23 08:27:21;;;;;;;10.00;2.10;;;;;;;5.34;64.71;99137.58;231218;1229;139126;-64
2022/02/23 08:32:27;;;;;;;13.20;2.40;;;;;;;5.27;64.74;99149.98;231316;1230;139439;-63
2022/02/23 08:37:30;;;;;;;8.50;2.20;;;;;;;5.27;64.72;99157.02;231396;1228;138927;-65
2022/02/23 08:42:36;;;;;;;;;;;;;;;5.32;64.86;99155.21;231303;1228;139244;-66
2022/02/23 08:47:39;;;;;;;13.30;2.70;;;;;;;5.45;65.14;99164.56;231334;1229;125980;-67
2022/02/23 08:52:42;;;;;;;9.10;2.60;;;;;;;5.62;65.23;99175.31;231300;1228;138335;-65
2022/02/23 08:57:45;;;;;;;14.20;2.80;;;;;;;5.82;65.13;99178.77;231231;1228;138884;-63
2022/02/23 09:02:48;;;;;;;11.60;2.90;;;;;;;5.99;64.91;99179.16;231425;1228;140361;-63
2022/02/23 09:07:51;;;;;;;14.20;2.70;;;;;;;6.16;64.77;99192.21;231366;1228;138973;-62
2022/02/23 09:12:54;;;;;;;12.40;3.20;;;;;;;6.36;64.59;99201.38;231456;1228;141217;-64
2022/02/23 09:17:58;;;;;;;14.10;3.10;;;;;;;6.53;64.14;99210.17;231236;1230;139934;-64
2022/02/23 09:23:01;;;;;;;14.00;3.00;;;;;;;6.66;63.94;99220.58;231293;1228;138967;-63
2022/02/23 09:28:04;;;;;;;12.30;2.50;;;;;;;6.73;63.39;99223.60;231280;1228;139583;-63
2022/02/23 09:33:07;;;;;;;13.50;2.90;;;;;;;6.84;63.05;99218.55;231083;1229;140820;-64
2022/02/23 09:38:11;;;;;;;12.50;2.70;;;;;;;6.95;62.42;99221.25;231205;1228;139405;-62
2022/02/23 09:43:15;;;;;;;16.30;2.90;;;;;;;6.96;62.00;99220.67;231362;1228;138713;-57
2022/02/23 09:48:19;;;;;;;71.00;34.00;;;;;;;7.02;61.94;99212.63;231168;1229;138938;-59
2022/02/23 09:53:23;;;;;;;14.70;4.20;;;;;;;7.18;61.87;99218.10;231117;1230;140190;-58
2022/02/23 09:58:27;;;;;;;10.00;2.80;;;;;;;7.21;60.88;99240.02;231099;1230;139281;-60
2022/02/23 10:03:38;;;;;;;10.20;2.40;;;;;;;7.20;60.91;99238.12;231142;1229;139583;-60
2022/02/23 10:08:42;;;;;;;12.80;2.90;;;;;;;7.26;61.11;99237.66;231260;1228;138792;-59
2022/02/23 10:13:51;;;;;;;9.50;2.90;;;;;;;7.33;61.22;99244.04;231283;1228;138762;-59
2022/02/23 10:19:17;;;;;;;10.50;2.50;;;;;;;7.39;60.87;99252.80;231080;1230;139174;-61
2022/02/23 10:24:29;;;;;;;9.70;2.80;;;;;;;7.44;61.09;99254.88;231220;1228;140085;-60
2022/02/23 10:29:45;;;;;;;14.10;3.70;;;;;;;7.52;60.82;99261.87;231161;1229;139436;-59
2022/02/23 10:34:51;;;;;;;9.30;2.50;;;;;;;7.69;60.68;99260.77;231240;1229;139030;-60
2022/02/23 10:40:00;;;;;;;11.90;2.70;;;;;;;7.81;60.33;99266.72;231186;1229;139907;-59
2022/02/23 10:45:06;;;;;;;13.50;2.70;;;;;;;7.95;59.98;99264.48;231206;1228;138974;-60
2022/02/23 10:50:25;;;;;;;7.90;2.50;;;;;;;7.88;59.20;99265.48;231134;1228;138437;-61
2022/02/23 10:55:31;;;;;;;10.00;2.00;;;;;;;7.74;59.01;99266.17;231295;1229;139440;-63
2022/02/23 11:00:39;;;;;;;9.50;2.30;;;;;;;7.80;58.66;99267.99;231150;1230;139061;-60
2022/02/23 11:05:43;;;;;;;21.50;8.00;;;;;;;7.79;58.52;99284.30;231202;1228;139725;-60
2022/02/23 11:10:48;;;;;;;12.00;3.30;;;;;;;7.78;58.12;99286.64;231171;1229;138799;-63
2022/02/23 11:15:52;;;;;;;11.80;2.60;;;;;;;7.75;58.30;99283.91;231150;1230;138851;-62
2022/02/23 11:20:57;;;;;;;10.40;3.00;;;;;;;7.66;58.19;99289.66;231184;1230;138794;-64
2022/02/23 11:26:01;;;;;;;7.70;2.60;;;;;;;7.65;58.08;99294.52;231198;1228;138950;-63
2022/02/23 11:31:13;;;;;;;14.60;3.10;;;;;;;7.74;57.86;99291.05;231290;1228;138526;-62
2022/02/23 11:36:29;;;;;;;15.50;3.00;;;;;;;7.80;57.95;99287.05;231255;1229;139639;-61
2022/02/23 11:41:37;;;;;;;12.30;3.00;;;;;;;7.92;57.89;99292.15;231280;1228;141639;-59
2022/02/23 11:46:53;;;;;;;12.30;3.40;;;;;;;8.07;57.60;99293.76;231233;1230;140925;-63
2022/02/23 11:52:15;;;;;;;14.10;4.90;;;;;;;8.13;57.27;99295.75;231229;1230;138655;-58
2022/02/23 11:57:38;;;;;;;14.10;3.90;;;;;;;8.28;57.25;99302.98;231220;1228;139356;-60
2022/02/23 12:02:56;;;;;;;10.10;2.80;;;;;;;8.43;57.06;99305.50;231180;1229;140477;-59
2022/02/23 12:07:59;;;;;;;12.10;3.10;;;;;;;8.53;56.76;99307.84;231281;1230;140487;-60
2022/02/23 12:13:03;;;;;;;12.60;2.80;;;;;;;8.55;56.38;99310.20;231341;1230;139386;-59
2022/02/23 12:18:16;;;;;;;12.30;2.70;;;;;;;8.73;56.59;99311.07;231214;1230;139084;-63
2022/02/23 12:23:19;;;;;;;10.70;2.80;;;;;;;8.79;56.15;99310.58;231244;1230;138974;-63
2022/02/23 12:28:26;;;;;;;12.00;2.80;;;;;;;8.92;55.72;99312.77;231252;1228;139196;-63
2022/02/23 12:33:35;;;;;;;11.60;2.70;;;;;;;8.93;55.29;99321.92;231095;1229;138822;-60
2022/02/23 12:39:00;;;;;;;9.40;2.50;;;;;;;9.06;55.63;99324.25;231296;1229;139616;-62
2022/02/23 12:44:12;;;;;;;9.70;2.30;;;;;;;9.20;55.47;99330.79;231233;1228;139027;-63
2022/02/23 12:49:16;;;;;;;8.00;2.40;;;;;;;9.25;54.83;99334.61;231324;1229;138647;-63
2022/02/23 12:54:22;;;;;;;8.80;1.90;;;;;;;9.30;54.78;99343.94;231238;1229;138667;-63
2022/02/23 12:59:30;;;;;;;6.90;1.90;;;;;;;9.32;54.33;99353.21;231261;1229;140676;-61
2022/02/23 13:04:36;;;;;;;15.10;3.30;;;;;;;9.15;54.05;99352.66;231279;1230;138731;-64
2022/02/23 13:09:44;;;;;;;11.20;2.80;;;;;;;9.13;54.12;99350.80;231257;1229;139134;-61
2022/02/23 13:14:55;;;;;;;28.90;11.60;;;;;;;9.27;54.48;99358.56;231243;1229;140380;-61
2022/02/23 13:19:59;;;;;;;14.60;3.60;;;;;;;9.57;55.33;99350.97;231159;1229;139308;-62
2022/02/23 13:25:02;;;;;;;9.10;2.80;;;;;;;9.53;54.05;99356.17;231403;1228;139897;-62
2022/02/23 13:30:25;;;;;;;23.90;10.40;;;;;;;9.50;53.91;99362.02;231273;1229;139067;-61
2022/02/23 13:35:28;;;;;;;12.90;3.60;;;;;;;9.68;54.17;99365.31;231218;1228;138921;-63
2022/02/23 13:40:37;;;;;;;13.40;2.70;;;;;;;9.70;53.36;99369.27;231222;1230;138719;-63
2022/02/23 13:45:40;;;;;;;11.70;3.00;;;;;;;9.50;53.25;99371.38;231217;1230;139608;-63
2022/02/23 13:50:47;;;;;;;9.30;2.70;;;;;;;9.37;52.97;99377.73;231278;1229;139013;-62
2022/02/23 13:55:53;;;;;;;10.60;2.80;;;;;;;9.25;53.35;99388.61;231369;1229;138627;-58
2022/02/23 14:00:59;;;;;;;11.10;2.80;;;;;;;9.20;53.22;99388.48;231342;1228;138774;-60
2022/02/23 14:06:07;;;;;;;;;;;;;;;9.23;53.29;99395.06;231276;1228;139162;-60
2022/02/23 14:11:13;;;;;;;14.00;4.50;;;;;;;9.23;53.27;99401.95;231253;1228;125668;-58
2022/02/23 14:16:18;;;;;;;9.20;3.00;;;;;;;9.14;52.88;99409.34;231179;1229;140760;-59
2022/02/23 14:21:24;;;;;;;13.20;3.30;;;;;;;9.07;52.96;99413.58;231204;1229;139095;-59
2022/02/23 14:26:27;;;;;;;;;;;;;;;8.97;53.01;99410.53;231264;1229;139517;-58
2022/02/23 14:31:42;;;;;;;16.10;3.10;;;;;;;8.85;53.19;99418.02;231413;1228;125064;-60
2022/02/23 14:36:46;;;;;;;16.00;3.40;;;;;;;8.76;53.10;99426.60;231185;1228;138820;-60
2022/02/23 14:41:51;;;;;;;10.30;3.00;;;;;;;8.66;52.92;99436.66;231242;1229;138599;-61
2022/02/23 14:46:54;;;;;;;14.10;2.60;;;;;;;8.50;53.16;99439.69;231144;1229;138562;-60
2022/02/23 14:51:57;;;;;;;10.80;3.50;;;;;;;8.37;53.39;99452.31;231167;1230;139498;-60
2022/02/23 14:57:02;;;;;;;12.80;3.00;;;;;;;8.25;53.41;99445.60;231050;1230;140668;-60
2022/02/23 15:02:07;;;;;;;10.30;2.90;;;;;;;8.15;53.70;99453.86;231296;1228;139219;-59
2022/02/23 15:07:10;;;;;;;16.20;3.40;;;;;;;8.10;53.52;99461.31;231329;1229;139118;-59
2022/02/23 15:12:18;;;;;;;10.20;2.70;;;;;;;8.08;53.74;99469.34;231162;1229;140288;-60
2022/02/23 15:17:21;;;;;;;15.60;4.10;;;;;;;8.03;53.78;99472.40;231154;1229;139925;-61
2022/02/23 15:22:24;;;;;;;11.10;3.10;;;;;;;8.01;53.98;99473.39;231125;1228;138815;-60
2022/02/23 15:27:28;;;;;;;10.90;2.70;;;;;;;8.04;54.04;99480.14;231189;1228;139569;-59
2022/02/23 15:32:31;;;;;;;13.20;3.00;;;;;;;8.06;54.14;99491.02;231205;1229;139268;-60
2022/02/23 15:37:34;;;;;;;16.30;3.40;;;;;;;8.05;53.94;99498.84;231238;1228;139449;-59
2022/02/23 15:42:38;;;;;;;10.10;3.10;;;;;;;8.03;54.05;99510.75;231157;1228;141075;-60
2022/02/23 15:47:42;;;;;;;195.60;112.40;;;;;;;8.00;54.29;99509.30;231063;1230;139181;-58
2022/02/23 15:52:45;;;;;;;25.30;7.90;;;;;;;8.10;54.67;99514.88;231123;1229;139660;-60
2022/02/23 15:57:48;;;;;;;10.40;3.70;;;;;;;8.10;54.39;99518.92;230964;1229;138786;-60
2022/02/23 16:02:51;;;;;;;9.60;3.40;;;;;;;8.02;53.77;99525.80;231292;1228;139224;-59
2022/02/23 16:07:55;;;;;;;12.60;3.40;;;;;;;7.89;53.96;99539.65;231263;1229;139739;-59
2022/02/23 16:12:58;;;;;;;13.40;4.60;;;;;;;7.80;54.21;99557.31;231118;1228;139024;-58
2022/02/23 16:18:01;;;;;;;11.70;3.00;;;;;;;7.80;54.31;99564.58;230974;1228;139412;-62
2022/02/23 16:23:18;;;;;;;9.30;3.20;;;;;;;7.71;54.14;99569.55;230960;1228;139697;-59
2022/02/23 16:28:22;;;;;;;11.70;3.70;;;;;;;7.66;54.27;99580.19;231110;1229;139365;-59
2022/02/23 16:33:25;;;;;;;12.20;3.30;;;;;;;7.62;54.36;99582.47;231145;1229;139236;-60
2022/02/23 16:38:28;;;;;;;10.90;3.60;;;;;;;7.60;54.23;99594.04;231087;1228;139969;-60
2022/02/23 16:43:31;;;;;;;70.40;40.40;;;;;;;7.57;54.34;99602.42;231312;1228;138699;-60
2022/02/23 16:48:40;;;;;;;12.50;5.00;;;;;;;7.62;54.24;99607.88;231101;1228;139907;-60
2022/02/23 16:53:43;;;;;;;16.90;4.60;;;;;;;7.61;54.30;99615.14;231109;1228;139998;-59
2022/02/23 16:58:47;;;;;;;12.70;3.80;;;;;;;7.56;54.18;99618.86;231112;1228;139730;-59
2022/02/23 17:03:50;;;;;;;14.20;4.20;;;;;;;7.53;53.73;99626.93;231158;1228;139500;-59
2022/02/23 17:08:53;;;;;;;13.70;4.80;;;;;;;7.52;53.66;99631.08;231099;1228;139149;-59
2022/02/23 17:13:56;;;;;;;15.00;5.80;;;;;;;7.56;54.11;99641.33;231300;1228;139075;-59
2022/02/23 17:18:59;;;;;;;19.70;4.70;;;;;;;7.63;53.86;99644.20;231086;1228;139231;-59
2022/02/23 17:24:03;;;;;;;17.00;4.60;;;;;;;7.59;53.72;99652.85;231138;1228;138911;-58
2022/02/23 17:29:06;;;;;;;14.10;4.70;;;;;;;7.57;53.52;99659.11;231184;1228;139280;-59
2022/02/23 17:34:10;;;;;;;12.00;4.60;;;;;;;7.54;53.38;99663.98;231113;1228;139442;-58
2022/02/23 17:39:13;;;;;;;18.20;5.10;;;;;;;7.50;53.40;99665.38;231239;1229;140111;-58
2022/02/23 17:44:16;;;;;;;17.70;5.10;;;;;;;7.41;53.31;99675.61;231184;1228;139376;-55
2022/02/23 17:49:20;;;;;;;14.80;5.00;;;;;;;7.34;53.36;99681.55;231259;1228;140074;-59
2022/02/23 17:54:26;;;;;;;20.00;5.40;;;;;;;7.27;53.47;99678.83;231174;1229;138769;-59
2022/02/23 17:59:30;;;;;;;20.60;5.40;;;;;;;7.23;53.33;99684.10;231195;1229;140744;-58
2022/02/23 18:04:33;;;;;;;16.90;5.40;;;;;;;7.20;53.40;99691.77;231136;1228;138750;-59
2022/02/23 18:09:37;;;;;;;18.40;5.30;;;;;;;7.15;53.27;99697.79;231153;1228;139436;-57
2022/02/23 18:14:40;;;;;;;481.20;285.90;;;;;;;7.16;53.89;99707.64;230997;1229;139228;-58
2022/02/23 18:19:43;;;;;;;38.50;16.20;;;;;;;7.34;54.20;99711.02;231254;1229;140157;-57
2022/02/23 18:24:47;;;;;;;21.10;7.80;;;;;;;7.33;53.65;99721.47;231200;1229;139046;-59
2022/02/23 18:29:50;;;;;;;23.50;6.90;;;;;;;7.23;53.63;99726.95;231174;1228;139206;-60
2022/02/23 18:34:54;;;;;;;16.40;6.20;;;;;;;7.15;53.53;99730.10;231162;1228;138961;-60
2022/02/23 18:39:57;;;;;;;31.80;12.40;;;;;;;7.09;53.70;99739.14;231168;1229;139142;-57
2022/02/23 18:45:00;;;;;;;25.50;8.40;;;;;;;7.08;53.83;99737.73;231179;1229;139012;-54
2022/02/23 18:50:04;;;;;;;19.50;7.30;;;;;;;6.98;53.72;99746.42;231287;1228;139364;-57
2022/02/23 18:55:08;;;;;;;16.70;6.50;;;;;;;6.90;54.08;99752.20;231204;1228;138986;-59
2022/02/23 19:00:12;;;;;;;44.40;19.40;;;;;;;6.84;54.00;99757.48;231182;1228;140158;-58
2022/02/23 19:05:16;;;;;;;24.20;8.60;;;;;;;6.90;53.92;99763.11;231189;1228;138963;-61
2022/02/23 19:10:19;;;;;;;17.80;7.60;;;;;;;6.82;54.00;99769.53;231142;1228;139237;-61
2022/02/23 19:15:22;;;;;;;25.50;7.80;;;;;;;6.72;54.04;99773.24;231196;1229;138973;-59
2022/02/23 19:20:25;;;;;;;22.80;8.00;;;;;;;6.63;53.99;99783.07;231212;1228;139558;-60
2022/02/23 19:25:28;;;;;;;24.40;7.70;;;;;;;6.59;54.18;99787.98;231312;1229;138974;-58
2022/02/23 19:30:31;;;;;;;21.60;7.30;;;;;;;6.57;54.23;99802.15;231068;1229;139003;-60
2022/02/23 19:35:34;;;;;;;19.90;6.70;;;;;;;6.55;54.36;99814.02;231192;1229;138201;-60
2022/02/23 19:40:42;;;;;;;25.20;8.10;;;;;;;6.54;54.46;99816.00;231192;1229;139303;-60
2022/02/23 19:46:05;;;;;;;19.60;8.20;;;;;;;6.44;54.29;99826.38;231252;1228;138388;-59
2022/02/23 19:51:09;;;;;;;20.30;7.80;;;;;;;6.38;54.53;99829.55;231240;1229;138873;-60
2022/02/23 19:56:17;;;;;;;23.00;8.90;;;;;;;6.29;54.54;99823.86;231223;1228;140668;-58
2022/02/23 20:01:21;;;;;;;21.20;8.30;;;;;;;6.23;54.58;99832.50;231360;1229;139224;-60
2022/02/23 20:06:27;;;;;;;22.50;8.00;;;;;;;6.18;54.55;99835.48;231327;1228;139861;-61
2022/02/23 20:11:30;;;;;;;22.40;8.40;;;;;;;6.14;54.66;99839.31;231243;1228;139734;-59
2022/02/23 20:16:37;;;;;;;23.20;8.30;;;;;;;6.14;55.02;99842.14;231207;1229;139035;-59
2022/02/23 20:21:40;;;;;;;24.20;9.00;;;;;;;6.12;54.46;99835.51;231182;1229;139241;-61
2022/02/23 20:26:43;;;;;;;24.50;9.00;;;;;;;6.11;54.65;99835.88;231146;1228;138935;-61
2022/02/23 20:31:46;;;;;;;26.00;9.90;;;;;;;6.12;54.96;99842.38;231291;1228;138068;-61
2022/02/23 20:36:50;;;;;;;29.10;9.70;;;;;;;6.10;54.62;99849.31;231218;1228;139300;-61
2022/02/23 20:41:53;;;;;;;33.30;11.00;;;;;;;6.05;54.76;99853.15;231199;1228;139234;-61
2022/02/23 20:46:56;;;;;;;29.00;11.60;;;;;;;6.03;54.67;99859.02;231193;1228;139452;-61
2022/02/23 20:51:59;;;;;;;25.10;10.60;;;;;;;5.94;54.45;99856.29;231203;1229;139016;-62
2022/02/23 20:57:02;;;;;;;29.10;11.70;;;;;;;5.87;54.64;99866.52;231273;1228;139871;-57
2022/02/23 21:02:06;;;;;;;31.00;11.90;;;;;;;5.81;54.55;99868.44;231330;1228;141679;-61
2022/02/23 21:07:11;;;;;;;31.60;12.10;;;;;;;5.74;54.60;99878.00;231212;1228;139114;-60
2022/02/23 21:12:14;;;;;;;27.10;11.90;;;;;;;5.70;54.78;99887.08;231348;1228;139059;-61
2022/02/23 21:17:17;;;;;;;33.10;12.80;;;;;;;5.64;54.86;99883.20;231227;1229;138864;-61
2022/02/23 21:22:20;;;;;;;37.70;17.10;;;;;;;5.63;55.18;99883.95;231228;1228;139322;-61
2022/02/23 21:27:24;;;;;;;35.90;13.60;;;;;;;5.67;55.23;99886.27;231204;1228;139149;-60
2022/02/23 21:32:27;;;;;;;33.60;12.60;;;;;;;5.66;55.06;99886.31;231232;1228;138399;-61
2022/02/23 21:37:30;;;;;;;32.20;12.90;;;;;;;5.60;54.86;99886.66;231315;1229;138816;-61
2022/02/23 21:42:33;;;;;;;30.20;13.00;;;;;;;5.55;55.00;99887.34;231196;1229;139275;-59
2022/02/23 21:47:36;;;;;;;38.10;12.70;;;;;;;5.53;55.02;99889.33;231271;1229;139531;-60
2022/02/23 21:52:39;;;;;;;33.60;13.00;;;;;;;5.50;54.86;99887.65;231208;1229;140444;-59
2022/02/23 21:57:42;;;;;;;33.60;13.30;;;;;;;5.45;54.95;99892.52;231177;1229;138612;-60
2022/02/23 22:02:45;;;;;;;32.30;12.50;;;;;;;5.40;54.99;99898.65;231176;1229;139802;-60
2022/02/23 22:07:48;;;;;;;38.10;13.90;;;;;;;5.36;55.09;99902.09;231395;1228;139474;-60
2022/02/23 22:12:51;;;;;;;35.50;13.30;;;;;;;5.34;55.27;99906.91;231170;1228;139249;-61
2022/02/23 22:17:54;;;;;;;32.90;13.50;;;;;;;5.30;55.15;99910.88;231281;1229;138872;-61
2022/02/23 22:22:57;;;;;;;38.90;15.30;;;;;;;5.26;55.30;99915.55;231334;1228;140710;-61
2022/02/23 22:28:00;;;;;;;38.90;13.60;;;;;;;5.17;55.24;99920.55;231091;1229;139299;-62
2022/02/23 22:33:04;;;;;;;34.60;14.00;;;;;;;5.07;55.30;99922.58;231319;1228;140233;-60
2022/02/23 22:38:08;;;;;;;34.60;14.40;;;;;;;5.00;55.49;99922.21;231247;1228;139792;-60
2022/02/23 22:43:12;;;;;;;30.90;13.80;;;;;;;4.96;55.59;99924.43;231198;1228;139122;-60
2022/02/23 22:48:16;;;;;;;35.60;14.40;;;;;;;4.92;55.78;99930.48;231219;1229;139185;-61
2022/02/23 22:53:22;;;;;;;38.50;16.10;;;;;;;4.88;55.77;99933.59;231241;1229;138832;-60
2022/02/23 22:58:28;;;;;;;41.20;16.60;;;;;;;4.84;55.92;99930.16;231242;1228;138538;-59
2022/02/23 23:03:32;;;;;;;39.60;16.70;;;;;;;4.81;55.95;99919.16;231356;1228;139640;-60
2022/02/23 23:08:40;;;;;;;36.20;17.30;;;;;;;4.77;56.08;99908.73;231040;1229;139824;-60
2022/02/23 23:13:43;;;;;;;31.30;14.90;;;;;;;4.73;56.08;99899.48;231340;1228;139888;-61
2022/02/23 23:18:47;;;;;;;39.00;16.20;;;;;;;4.67;56.13;99894.19;231197;1229;140238;-60
2022/02/23 23:23:51;;;;;;;34.90;17.00;;;;;;;4.60;56.24;99890.67;231133;1228;139261;-57